Terminal Aerodrome Forecast
Issued by NWS

Home | Current Version | Previous Version | Text Only | Print | Product List | Glossary On
Versions: 1 2 3 4 5 6 7 8 9 10 11 12 13 14 15 16
605
FTUS43 KJKL 220521
TAFSJS
TAF
KSJS 220521Z 2206/2306 07003KT P6SM BKN070 OVC080
     FM221100 00000KT P6SM VCSH BKN040
     FM221500 10004KT 6SM -SHRA OVC030
     FM222000 14005KT P6SM VCTS OVC035CB=

USA.gov is the U.S. government's official web portal to all federal, state and local government web resources and services.